Time;durP1;ratioP1;P1;durP2;ratioP2;P2;SDS_P1;SDS_P2;PMS_P1;PMS_P2;Temp;Humidity;BMP_temperature;BMP_pressure;BME280_temperature;BME280_humidity;BME280_pressure;Samples;Min_cycle;Max_cycle;Signal;HPM_P1;HPM_P2
2022/03/10 00:00:39;;;;;;;24.83;12.90;;;7.60;34.20;;;;;;5019875;28;20401;-42
2022/03/10 00:03:07;;;;;;;25.25;12.25;;;7.50;34.20;;;;;;5017951;28;20493;-45
2022/03/10 00:05:35;;;;;;;23.92;13.00;;;7.50;34.20;;;;;;5020170;28;20426;-43
2022/03/10 00:08:03;;;;;;;26.25;12.02;;;7.50;34.30;;;;;;5021414;28;20049;-43
2022/03/10 00:10:32;;;;;;;22.50;12.35;;;7.50;34.40;;;;;;5021317;28;20060;-43
2022/03/10 00:12:59;;;;;;;25.10;13.35;;;7.50;34.50;;;;;;5020189;28;20052;-42
2022/03/10 00:15:27;;;;;;;25.85;12.88;;;7.50;34.40;;;;;;5020755;28;20054;-44
2022/03/10 00:17:54;;;;;;;21.20;11.68;;;7.50;34.50;;;;;;5020810;28;20072;-42
2022/03/10 00:20:23;;;;;;;24.60;12.98;;;7.40;34.60;;;;;;5019729;28;20049;-42
2022/03/10 00:22:52;;;;;;;31.30;13.75;;;7.40;34.70;;;;;;5021533;28;20508;-42
2022/03/10 00:25:21;;;;;;;23.58;11.88;;;7.50;34.80;;;;;;5019307;28;20060;-43
2022/03/10 00:27:50;;;;;;;24.55;12.65;;;7.40;34.70;;;;;;5020403;28;20053;-42
2022/03/10 00:30:18;;;;;;;23.10;12.63;;;7.40;34.80;;;;;;5021118;28;20060;-43
2022/03/10 00:32:47;;;;;;;28.27;12.75;;;7.40;34.90;;;;;;5019470;28;20080;-42
2022/03/10 00:35:19;;;;;;;24.05;12.50;;;7.30;34.90;;;;;;5019570;28;20048;-43
2022/03/10 00:37:47;;;;;;;27.85;13.38;;;7.30;35.00;;;;;;5021279;28;20064;-42
2022/03/10 00:40:15;;;;;;;25.15;12.80;;;7.30;34.90;;;;;;5022197;28;20057;-42
2022/03/10 00:42:44;;;;;;;21.48;11.73;;;7.30;35.00;;;;;;5019414;28;20421;-42
2022/03/10 00:45:15;;;;;;;22.83;12.38;;;7.30;35.10;;;;;;5020577;28;20053;-47
2022/03/10 00:47:43;;;;;;;21.73;10.93;;;7.20;35.10;;;;;;5020093;28;20061;-43
2022/03/10 00:50:11;;;;;;;20.58;11.90;;;7.20;35.20;;;;;;5020278;28;20406;-43
2022/03/10 00:52:42;;;;;;;22.70;12.38;;;7.20;35.30;;;;;;5020912;28;20053;-45
2022/03/10 00:55:10;;;;;;;21.02;11.25;;;7.10;35.40;;;;;;5021073;28;20064;-43
2022/03/10 00:57:39;;;;;;;21.25;12.63;;;7.10;35.30;;;;;;5021573;28;20517;-43
2022/03/10 01:00:08;;;;;;;22.42;12.15;;;7.10;35.40;;;;;;5020772;28;20069;-43
2022/03/10 01:02:37;;;;;;;22.33;12.07;;;7.00;35.40;;;;;;5021629;28;20418;-43
2022/03/10 01:05:05;;;;;;;23.48;12.10;;;7.00;35.40;;;;;;5016510;28;20072;-43
2022/03/10 01:07:33;;;;;;;27.02;13.20;;;7.00;35.50;;;;;;5020929;28;20447;-43
2022/03/10 01:10:03;;;;;;;27.13;14.20;;;7.00;35.70;;;;;;5020945;28;20099;-43
2022/03/10 01:12:31;;;;;;;26.15;12.95;;;7.00;35.80;;;;;;5019555;28;20061;-43
2022/03/10 01:14:58;;;;;;;29.55;13.07;;;6.90;35.80;;;;;;5018328;28;20379;-44
2022/03/10 01:17:27;;;;;;;23.23;11.85;;;6.90;35.90;;;;;;5020246;28;20499;-46
2022/03/10 01:19:56;;;;;;;24.45;12.40;;;6.90;35.90;;;;;;5017200;28;20061;-43
2022/03/10 01:22:23;;;;;;;26.05;12.65;;;6.90;36.00;;;;;;5021825;28;20057;-43
2022/03/10 01:24:51;;;;;;;30.33;13.00;;;6.80;36.00;;;;;;5019438;28;20054;-43
2022/03/10 01:27:18;;;;;;;26.45;13.57;;;6.80;36.00;;;;;;5020822;28;20056;-43
2022/03/10 01:29:46;;;;;;;30.65;14.40;;;6.80;36.00;;;;;;5021349;28;20054;-43
2022/03/10 01:32:13;;;;;;;27.95;14.88;;;6.80;36.10;;;;;;5018758;28;20568;-43
2022/03/10 01:34:41;;;;;;;25.13;13.30;;;6.80;36.30;;;;;;5016776;28;20493;-42
2022/03/10 01:37:10;;;;;;;23.95;13.38;;;6.80;36.40;;;;;;5020547;28;20057;-42
2022/03/10 01:39:37;;;;;;;26.48;13.63;;;6.70;36.40;;;;;;5020853;28;20053;-43
2022/03/10 01:42:06;;;;;;;29.63;15.10;;;6.70;36.50;;;;;;5020705;28;20387;-42
2022/03/10 01:44:34;;;;;;;32.17;14.65;;;6.70;36.50;;;;;;5018418;28;20046;-44
2022/03/10 01:47:02;;;;;;;29.27;14.02;;;6.70;36.60;;;;;;5019867;28;20057;-43
2022/03/10 01:49:30;;;;;;;26.17;13.88;;;6.60;36.60;;;;;;5017111;28;20054;-43
2022/03/10 01:51:58;;;;;;;22.92;12.75;;;6.60;36.60;;;;;;5019172;28;20057;-42
2022/03/10 01:54:27;;;;;;;27.17;13.82;;;6.60;36.70;;;;;;5019585;28;20391;-42
2022/03/10 01:56:55;;;;;;;25.88;13.50;;;6.60;36.80;;;;;;5019950;28;21719;-42
2022/03/10 01:59:24;;;;;;;29.80;13.25;;;6.60;36.80;;;;;;5018603;28;20417;-42
2022/03/10 02:01:51;;;;;;;24.92;13.30;;;6.60;36.90;;;;;;5019537;28;20069;-43
2022/03/10 02:04:19;;;;;;;28.70;14.05;;;6.60;36.90;;;;;;5017766;28;20651;-42
2022/03/10 02:06:47;;;;;;;26.90;14.10;;;6.60;37.00;;;;;;5024227;28;20107;-42
2022/03/10 02:12:01;;;;;;;25.60;13.57;;;6.60;37.00;;;;;;5029467;28;20056;-45
2022/03/10 02:17:22;;;;;;;29.70;14.50;;;6.50;36.90;;;;;;5030289;28;20052;-42
2022/03/10 02:19:51;;;;;;;27.33;15.38;;;6.50;37.00;;;;;;5022098;28;20548;-42
2022/03/10 02:22:22;;;;;;;30.27;14.50;;;6.50;37.10;;;;;;5024801;28;20390;-44
2022/03/10 02:24:50;;;;;;;27.95;13.95;;;6.50;37.10;;;;;;5021489;28;20056;-43
2022/03/10 02:27:19;;;;;;;36.17;15.10;;;6.50;37.10;;;;;;5024232;28;20061;-42
2022/03/10 02:29:48;;;;;;;26.20;14.27;;;6.50;37.30;;;;;;5023065;28;20049;-42
2022/03/10 02:32:16;;;;;;;25.23;13.70;;;6.50;37.30;;;;;;5020855;28;20065;-43
2022/03/10 02:34:45;;;;;;;30.20;13.93;;;6.40;37.30;;;;;;5020652;28;20076;-43
2022/03/10 02:37:13;;;;;;;33.20;14.80;;;6.40;37.30;;;;;;5022308;28;20057;-43
2022/03/10 02:39:43;;;;;;;28.88;14.70;;;6.40;37.40;;;;;;5020790;28;20490;-42
2022/03/10 02:42:12;;;;;;;24.95;14.40;;;6.40;37.50;;;;;;5023318;28;20072;-43
2022/03/10 02:44:44;;;;;;;24.58;13.32;;;6.40;37.50;;;;;;5022127;28;20077;-44
2022/03/10 02:47:11;;;;;;;27.10;14.27;;;6.40;37.50;;;;;;5023014;28;20045;-42
2022/03/10 02:49:40;;;;;;;27.77;14.32;;;6.40;37.60;;;;;;5021073;28;20508;-42
2022/03/10 02:52:08;;;;;;;26.52;13.68;;;6.40;37.50;;;;;;5021062;28;20049;-42
2022/03/10 02:54:36;;;;;;;27.08;12.77;;;6.40;37.50;;;;;;5021304;28;20486;-43
2022/03/10 02:57:05;;;;;;;24.27;13.57;;;6.30;37.50;;;;;;5022702;28;20069;-43
2022/03/10 02:59:33;;;;;;;24.02;13.15;;;6.30;38.10;;;;;;5022638;28;20045;-43
2022/03/10 03:02:02;;;;;;;25.42;14.23;;;6.30;37.60;;;;;;5023578;28;20514;-42
2022/03/10 03:04:29;;;;;;;25.73;14.20;;;6.30;37.70;;;;;;5019781;28;20418;-42
2022/03/10 03:06:57;;;;;;;25.45;13.85;;;6.30;37.70;;;;;;5023508;28;20061;-45
2022/03/10 03:09:24;;;;;;;26.33;13.32;;;6.30;37.70;;;;;;5023721;28;20516;-43
2022/03/10 03:11:52;;;;;;;28.90;13.60;;;6.30;37.70;;;;;;5022283;28;20056;-42
2022/03/10 03:14:22;;;;;;;26.85;13.43;;;6.20;37.70;;;;;;5021179;28;20266;-42
2022/03/10 03:16:50;;;;;;;31.45;14.13;;;6.20;37.90;;;;;;5021271;28;20072;-43
2022/03/10 03:19:18;;;;;;;26.60;13.88;;;6.20;37.90;;;;;;5021384;28;20045;-42
2022/03/10 03:21:45;;;;;;;25.75;13.82;;;6.20;37.90;;;;;;5022226;28;20060;-42
2022/03/10 03:24:13;;;;;;;28.88;15.07;;;6.20;37.90;;;;;;5021694;28;20053;-44
2022/03/10 03:26:41;;;;;;;27.77;14.70;;;6.10;37.90;;;;;;5021431;28;20416;-43
2022/03/10 03:29:10;;;;;;;27.02;13.18;;;6.10;37.90;;;;;;5022941;28;20056;-43
2022/03/10 03:31:39;;;;;;;25.65;13.88;;;6.10;38.10;;;;;;5022536;28;20049;-43
2022/03/10 03:34:10;;;;;;;26.20;13.88;;;6.10;38.10;;;;;;5019939;28;20065;-42
2022/03/10 03:36:38;;;;;;;30.95;13.55;;;6.10;38.10;;;;;;5023230;28;20053;-42
2022/03/10 03:39:06;;;;;;;24.98;13.40;;;6.10;38.20;;;;;;5022835;28;20045;-42
2022/03/10 03:41:34;;;;;;;25.17;12.93;;;6.10;38.20;;;;;;5023230;28;20053;-45
2022/03/10 03:44:02;;;;;;;23.65;11.73;;;6.10;38.20;;;;;;5018473;28;20061;-42
2022/03/10 03:46:30;;;;;;;23.35;12.35;;;6.00;38.20;;;;;;5019726;28;20054;-45
2022/03/10 03:48:59;;;;;;;25.33;12.80;;;6.00;38.20;;;;;;5020676;28;20128;-43
2022/03/10 03:51:27;;;;;;;28.45;13.68;;;6.00;38.20;;;;;;5022099;28;20144;-43
2022/03/10 03:53:54;;;;;;;25.50;14.02;;;6.00;38.30;;;;;;5018816;28;20049;-43
2022/03/10 03:56:22;;;;;;;21.92;11.90;;;6.00;38.30;;;;;;5023094;28;20532;-42
2022/03/10 03:58:49;;;;;;;28.25;14.93;;;6.00;38.40;;;;;;5021028;28;20490;-42
2022/03/10 04:01:17;;;;;;;25.77;13.10;;;5.90;38.50;;;;;;5020772;28;20057;-42
2022/03/10 04:03:45;;;;;;;29.15;14.52;;;5.90;38.50;;;;;;5019598;28;20505;-43
2022/03/10 04:06:16;;;;;;;27.65;14.70;;;5.90;38.60;;;;;;5022289;28;20069;-42
2022/03/10 04:08:43;;;;;;;30.67;14.43;;;5.80;38.60;;;;;;5022296;28;20050;-43
2022/03/10 04:11:11;;;;;;;29.55;14.48;;;5.80;38.60;;;;;;5023935;28;20060;-42
2022/03/10 04:13:39;;;;;;;24.77;12.48;;;5.80;38.70;;;;;;5018962;28;20909;-42
2022/03/10 04:16:07;;;;;;;29.73;14.20;;;5.80;38.60;;;;;;5022440;28;20053;-42
2022/03/10 04:18:34;;;;;;;27.38;14.02;;;5.80;38.80;;;;;;5020013;28;20049;-44
2022/03/10 04:21:02;;;;;;;24.25;12.27;;;5.80;38.70;;;;;;5021499;28;20061;-43
2022/03/10 04:23:33;;;;;;;26.30;13.93;;;5.80;38.80;;;;;;5019577;28;20049;-42
2022/03/10 04:26:01;;;;;;;24.58;12.82;;;5.80;38.80;;;;;;5021701;28;20115;-42
2022/03/10 04:28:28;;;;;;;24.90;13.82;;;5.80;38.80;;;;;;5020929;28;20060;-42
2022/03/10 04:30:56;;;;;;;22.58;13.15;;;5.80;38.80;;;;;;5019612;28;20482;-42
2022/03/10 04:33:23;;;;;;;30.02;14.10;;;5.80;38.80;;;;;;5019043;28;20053;-42
2022/03/10 04:35:51;;;;;;;24.95;13.38;;;5.80;38.90;;;;;;5019459;28;20489;-42
2022/03/10 04:38:20;;;;;;;26.95;12.73;;;5.80;38.90;;;;;;5021972;28;21017;-42
2022/03/10 04:40:48;;;;;;;27.55;15.10;;;5.80;38.90;;;;;;5020951;28;20053;-42
2022/03/10 04:43:16;;;;;;;23.38;12.80;;;5.80;39.00;;;;;;5018648;28;20068;-42
2022/03/10 04:45:44;;;;;;;27.27;13.23;;;5.80;38.90;;;;;;5017076;28;20060;-43
2022/03/10 04:48:11;;;;;;;25.55;13.75;;;5.80;38.90;;;;;;5021023;28;20691;-44
2022/03/10 04:50:39;;;;;;;32.83;14.27;;;5.70;39.00;;;;;;5019661;28;20050;-43
2022/03/10 04:53:06;;;;;;;23.70;12.40;;;5.80;39.00;;;;;;5021203;28;20065;-44
2022/03/10 04:55:34;;;;;;;26.23;12.70;;;5.80;39.00;;;;;;5019240;28;20045;-43
2022/03/10 04:58:04;;;;;;;24.35;12.43;;;5.70;38.90;;;;;;5022237;28;20057;-42
2022/03/10 05:00:31;;;;;;;23.10;12.35;;;5.70;39.00;;;;;;5020936;28;20045;-43
2022/03/10 05:02:59;;;;;;;28.00;12.65;;;5.70;39.00;;;;;;5021406;28;20050;-42
2022/03/10 05:05:26;;;;;;;28.90;15.30;;;5.70;39.00;;;;;;5015706;28;20117;-42
2022/03/10 05:07:54;;;;;;;40.78;19.05;;;5.70;39.10;;;;;;5022350;28;20057;-42
2022/03/10 05:10:21;;;;;;;62.08;25.42;;;5.70;39.10;;;;;;5022000;28;20434;-42
2022/03/10 05:12:50;;;;;;;40.83;19.33;;;5.70;39.20;;;;;;5019071;28;20061;-42
2022/03/10 05:15:20;;;;;;;31.10;15.65;;;5.60;39.20;;;;;;5014573;28;20057;-42
2022/03/10 05:17:48;;;;;;;29.27;13.00;;;5.60;39.20;;;;;;5013916;28;20080;-43
2022/03/10 05:20:16;;;;;;;23.48;12.85;;;5.60;39.60;;;;;;5019430;28;20053;-45
2022/03/10 05:22:45;;;;;;;20.20;11.60;;;5.60;39.30;;;;;;5019657;28;20060;-43
2022/03/10 05:25:13;;;;;;;24.77;13.30;;;5.60;39.30;;;;;;5020283;28;20209;-42
2022/03/10 05:27:42;;;;;;;28.98;14.57;;;5.60;39.30;;;;;;5020367;28;20049;-45
2022/03/10 05:30:11;;;;;;;25.58;13.15;;;5.60;39.40;;;;;;5019688;28;20045;-42
2022/03/10 05:32:40;;;;;;;25.20;12.63;;;5.60;39.40;;;;;;5019231;28;20049;-42
2022/03/10 05:35:10;;;;;;;30.25;15.25;;;5.60;39.40;;;;;;5019191;28;20049;-43
2022/03/10 05:37:40;;;;;;;32.80;12.98;;;5.60;39.40;;;;;;5018293;28;20045;-43
2022/03/10 05:40:09;;;;;;;26.02;13.02;;;5.60;39.50;;;;;;5021095;28;20049;-42
2022/03/10 05:42:38;;;;;;;19.33;11.30;;;5.60;39.50;;;;;;5024615;28;20057;-43
2022/03/10 05:45:07;;;;;;;21.58;11.48;;;5.60;39.50;;;;;;5020387;28;20072;-43
2022/03/10 05:47:35;;;;;;;25.33;13.40;;;5.60;39.50;;;;;;5024606;28;20056;-43
2022/03/10 05:50:05;;;;;;;21.42;11.65;;;5.50;39.50;;;;;;5021074;28;20057;-42
2022/03/10 05:52:34;;;;;;;25.90;12.35;;;5.50;39.50;;;;;;5020890;28;20058;-44
2022/03/10 05:55:01;;;;;;;24.52;13.45;;;5.50;39.50;;;;;;5018836;28;20050;-43
2022/03/10 05:57:29;;;;;;;29.10;13.95;;;5.50;39.60;;;;;;5024289;28;20057;-43
2022/03/10 05:59:56;;;;;;;25.10;12.95;;;5.50;39.70;;;;;;5022054;28;20053;-42
2022/03/10 06:02:25;;;;;;;30.15;13.52;;;5.50;39.70;;;;;;5019640;28;21286;-43
2022/03/10 06:04:53;;;;;;;26.55;13.85;;;5.50;39.70;;;;;;5020612;28;20512;-43
2022/03/10 06:07:22;;;;;;;26.92;13.32;;;5.50;39.80;;;;;;5024232;28;20049;-42
2022/03/10 06:09:49;;;;;;;28.48;14.00;;;5.50;39.80;;;;;;5022673;28;20049;-42
2022/03/10 06:12:21;;;;;;;27.95;13.57;;;5.50;39.80;;;;;;5021686;28;20060;-42
2022/03/10 06:14:48;;;;;;;25.92;13.30;;;5.50;39.90;;;;;;5020339;28;20061;-42
2022/03/10 06:17:20;;;;;;;25.75;13.95;;;5.50;39.90;;;;;;5022848;28;21283;-42
2022/03/10 06:19:48;;;;;;;26.45;13.20;;;5.50;39.90;;;;;;5021805;28;20406;-44
2022/03/10 06:22:17;;;;;;;53.03;23.98;;;5.50;39.90;;;;;;5023399;28;20132;-43
2022/03/10 06:24:47;;;;;;;27.70;13.70;;;5.50;40.00;;;;;;5023095;28;20064;-43
2022/03/10 06:27:15;;;;;;;26.40;14.30;;;5.60;40.00;;;;;;5024339;28;20053;-46
2022/03/10 06:29:44;;;;;;;25.23;13.40;;;5.60;40.00;;;;;;5021699;28;20060;-43
2022/03/10 06:32:12;;;;;;;31.33;14.25;;;5.60;40.00;;;;;;5023065;28;20406;-44
2022/03/10 06:34:40;;;;;;;23.75;13.18;;;5.60;39.90;;;;;;5022645;28;20056;-43
2022/03/10 06:37:08;;;;;;;27.77;13.70;;;5.70;39.90;;;;;;5024302;28;20053;-44
2022/03/10 06:39:36;;;;;;;25.90;12.85;;;5.70;39.90;;;;;;5022560;28;20053;-43
2022/03/10 06:42:06;;;;;;;22.42;12.63;;;5.70;39.90;;;;;;5021695;28;20072;-42
2022/03/10 06:44:36;;;;;;;29.70;13.07;;;5.70;39.90;;;;;;5000479;28;20054;-45
2022/03/10 06:47:04;;;;;;;26.00;13.55;;;5.80;39.90;;;;;;5003297;28;20054;-43
2022/03/10 06:49:32;;;;;;;26.35;13.40;;;5.80;40.00;;;;;;5000081;28;20058;-43
2022/03/10 06:52:00;;;;;;;27.10;12.82;;;5.90;40.00;;;;;;4999819;28;20053;-43
2022/03/10 06:54:28;;;;;;;28.90;13.25;;;5.90;39.90;;;;;;5002077;28;20054;-42
2022/03/10 06:56:56;;;;;;;28.65;13.23;;;5.90;39.90;;;;;;5001945;28;20054;-43
2022/03/10 06:59:25;;;;;;;27.88;13.60;;;6.00;39.90;;;;;;5002184;28;20049;-43
2022/03/10 07:01:52;;;;;;;26.08;13.35;;;6.00;40.00;;;;;;4999772;28;20062;-42
2022/03/10 07:04:20;;;;;;;28.08;13.65;;;6.00;39.90;;;;;;5000947;28;20486;-42
2022/03/10 07:06:47;;;;;;;24.92;13.30;;;6.10;40.00;;;;;;5002897;28;20064;-42
2022/03/10 07:09:15;;;;;;;27.65;14.48;;;6.10;40.00;;;;;;5003482;28;20073;-43
2022/03/10 07:11:43;;;;;;;31.45;15.23;;;6.20;40.00;;;;;;4999253;28;20482;-43
2022/03/10 07:14:11;;;;;;;25.33;13.60;;;6.20;40.00;;;;;;5002762;28;20050;-42
2022/03/10 07:16:41;;;;;;;27.75;14.25;;;6.30;39.90;;;;;;5000745;28;20494;-43
2022/03/10 07:19:10;;;;;;;25.88;13.38;;;6.30;39.80;;;;;;5000724;28;20050;-46
2022/03/10 07:21:38;;;;;;;27.35;14.38;;;6.30;39.70;;;;;;4999677;28;20053;-42
2022/03/10 07:24:07;;;;;;;27.38;13.50;;;6.40;39.70;;;;;;5000484;28;20053;-42
2022/03/10 07:26:35;;;;;;;25.85;13.75;;;6.40;39.70;;;;;;5002535;28;20514;-42
2022/03/10 07:29:04;;;;;;;26.27;13.35;;;6.50;39.70;;;;;;5002943;28;20437;-42
2022/03/10 07:31:33;;;;;;;23.30;12.35;;;6.50;39.70;;;;;;4999708;28;20065;-43
2022/03/10 07:34:02;;;;;;;30.90;13.77;;;6.60;39.70;;;;;;4998145;28;20053;-42
2022/03/10 07:36:30;;;;;;;27.92;15.02;;;6.60;39.60;;;;;;5003409;28;20646;-45
2022/03/10 07:38:57;;;;;;;28.25;15.25;;;6.70;40.10;;;;;;5000446;28;20414;-42
2022/03/10 07:41:25;;;;;;;28.30;13.55;;;6.70;39.70;;;;;;5002650;28;20054;-42
2022/03/10 07:43:53;;;;;;;34.40;15.15;;;6.80;39.70;;;;;;5014657;28;20072;-44
2022/03/10 07:46:22;;;;;;;28.23;13.75;;;6.90;39.70;;;;;;5018974;28;20425;-42
2022/03/10 07:48:51;;;;;;;25.83;14.05;;;6.90;39.60;;;;;;5020972;28;20060;-43
2022/03/10 07:51:20;;;;;;;30.73;14.25;;;7.00;39.70;;;;;;5019413;28;20470;-43
2022/03/10 07:53:48;;;;;;;31.88;13.15;;;7.00;39.70;;;;;;5021019;28;20064;-43
2022/03/10 07:56:16;;;;;;;26.15;13.70;;;7.10;39.60;;;;;;5021617;28;20058;-42
2022/03/10 07:58:44;;;;;;;37.58;15.02;;;7.20;39.80;;;;;;5021115;28;20050;-43
2022/03/10 08:01:11;;;;;;;28.65;13.93;;;7.20;39.60;;;;;;5020629;28;20418;-46
2022/03/10 08:03:39;;;;;;;28.27;14.20;;;7.20;39.60;;;;;;5017625;28;20057;-43
2022/03/10 08:06:07;;;;;;;25.83;13.77;;;7.30;39.60;;;;;;5019346;28;20072;-42
2022/03/10 08:08:37;;;;;;;27.02;13.70;;;7.40;39.50;;;;;;5021560;28;20052;-43
2022/03/10 08:11:06;;;;;;;28.27;14.65;;;7.50;39.50;;;;;;5020633;28;20334;-43
2022/03/10 08:13:33;;;;;;;25.92;14.63;;;7.50;39.50;;;;;;4999295;28;20045;-43
2022/03/10 08:16:01;;;;;;;29.13;14.15;;;7.60;39.60;;;;;;5012301;28;20045;-48
2022/03/10 08:18:29;;;;;;;29.77;14.70;;;7.70;39.50;;;;;;5016021;28;20049;-43
2022/03/10 08:20:58;;;;;;;26.63;14.30;;;7.70;39.40;;;;;;5020431;28;20418;-43
2022/03/10 08:23:25;;;;;;;26.50;14.75;;;7.80;39.40;;;;;;5016479;28;20056;-43
2022/03/10 08:25:55;;;;;;;31.92;13.63;;;7.90;39.30;;;;;;5015673;28;20054;-42
2022/03/10 08:28:23;;;;;;;30.83;15.15;;;7.90;39.10;;;;;;5021699;28;20422;-44
2022/03/10 08:30:51;;;;;;;30.33;14.30;;;8.00;39.00;;;;;;5020905;28;20597;-44
2022/03/10 08:33:18;;;;;;;29.25;14.70;;;8.10;39.00;;;;;;5020304;28;21045;-43
2022/03/10 08:35:46;;;;;;;30.00;14.40;;;8.10;38.90;;;;;;5019568;28;20072;-43
2022/03/10 08:38:13;;;;;;;29.58;14.23;;;8.20;38.80;;;;;;5018882;28;20049;-44
2022/03/10 08:40:41;;;;;;;26.88;14.15;;;8.30;38.80;;;;;;5018437;28;20060;-43
2022/03/10 08:43:12;;;;;;;24.23;13.48;;;8.30;38.70;;;;;;5021374;28;20049;-43
2022/03/10 08:45:40;;;;;;;29.33;14.70;;;8.40;38.50;;;;;;5020116;28;20060;-42
2022/03/10 08:48:07;;;;;;;29.65;14.30;;;8.50;38.50;;;;;;5021291;28;20061;-44
2022/03/10 08:50:35;;;;;;;28.20;13.55;;;8.60;38.50;;;;;;5018394;28;20072;-43
2022/03/10 08:53:03;;;;;;;34.53;14.27;;;8.70;38.60;;;;;;5019796;28;20053;-43
2022/03/10 08:55:31;;;;;;;26.08;13.82;;;8.70;38.40;;;;;;5019872;28;20045;-43
2022/03/10 08:58:00;;;;;;;25.67;13.07;;;8.80;38.40;;;;;;5021998;28;20057;-43
2022/03/10 09:00:29;;;;;;;23.95;13.15;;;8.90;38.40;;;;;;5017314;28;20064;-43
2022/03/10 09:02:57;;;;;;;25.75;13.65;;;9.00;38.40;;;;;;5016949;28;20060;-43
2022/03/10 09:05:24;;;;;;;22.73;12.73;;;9.00;38.20;;;;;;5019055;28;20437;-43
2022/03/10 09:07:52;;;;;;;31.55;14.27;;;9.10;38.20;;;;;;5020784;28;20054;-43
2022/03/10 09:10:20;;;;;;;29.08;13.60;;;9.20;38.30;;;;;;5021045;28;20057;-43
2022/03/10 09:12:47;;;;;;;25.88;13.80;;;9.30;38.20;;;;;;5018556;28;20061;-42
2022/03/10 09:15:17;;;;;;;24.35;12.98;;;9.40;38.10;;;;;;5021916;28;20057;-43
2022/03/10 09:17:46;;;;;;;22.27;12.63;;;9.40;38.10;;;;;;5023841;28;20053;-44
2022/03/10 09:20:14;;;;;;;29.83;13.50;;;9.50;38.00;;;;;;5023036;28;20064;-46
2022/03/10 09:22:42;;;;;;;25.17;12.82;;;9.60;38.00;;;;;;5022795;28;20046;-44
2022/03/10 09:25:09;;;;;;;30.88;13.10;;;9.70;38.00;;;;;;5024504;28;20053;-42
2022/03/10 09:27:37;;;;;;;20.85;11.90;;;9.80;37.90;;;;;;5024164;28;20058;-42
2022/03/10 09:30:08;;;;;;;27.63;14.05;;;9.90;37.90;;;;;;5024495;28;20072;-48
2022/03/10 09:32:35;;;;;;;24.00;12.63;;;10.00;37.90;;;;;;5021179;28;20513;-45
2022/03/10 09:35:06;;;;;;;24.15;13.20;;;10.10;37.80;;;;;;5023522;28;20057;-42
2022/03/10 09:37:33;;;;;;;20.27;10.82;;;10.20;37.70;;;;;;5021914;28;20116;-42
2022/03/10 09:40:01;;;;;;;24.10;13.07;;;10.20;37.70;;;;;;5024813;28;20053;-42
2022/03/10 09:42:30;;;;;;;23.00;12.68;;;10.30;37.80;;;;;;5022533;28;20057;-42
2022/03/10 09:44:59;;;;;;;26.05;12.70;;;10.40;37.60;;;;;;5023432;28;20057;-42
2022/03/10 09:47:27;;;;;;;27.00;12.40;;;10.50;37.70;;;;;;5022382;28;20064;-42
2022/03/10 09:49:55;;;;;;;22.20;12.00;;;10.60;37.40;;;;;;5024400;28;20061;-42
2022/03/10 09:52:25;;;;;;;23.30;12.45;;;10.70;37.20;;;;;;5022535;28;20060;-43
2022/03/10 09:54:52;;;;;;;20.63;11.68;;;10.70;37.30;;;;;;5020170;28;20049;-42
2022/03/10 09:57:22;;;;;;;19.50;10.77;;;10.80;37.20;;;;;;5021626;28;20068;-45
2022/03/10 09:59:50;;;;;;;21.85;11.35;;;10.90;36.70;;;;;;5023175;28;20056;-42
2022/03/10 10:02:18;;;;;;;24.00;12.63;;;11.00;36.70;;;;;;5019054;28;20508;-42
2022/03/10 10:04:48;;;;;;;24.15;12.70;;;11.10;36.90;;;;;;5022202;28;20502;-42
2022/03/10 10:07:19;;;;;;;21.45;11.80;;;11.20;36.70;;;;;;5023621;28;20053;-42
2022/03/10 10:09:51;;;;;;;21.35;11.70;;;11.20;36.70;;;;;;5022562;28;20065;-42
2022/03/10 10:12:22;;;;;;;20.38;11.88;;;11.30;36.50;;;;;;5024202;28;20428;-43
2022/03/10 10:14:50;;;;;;;19.23;11.48;;;11.40;36.60;;;;;;5022537;28;20072;-42
2022/03/10 10:17:25;;;;;;;21.23;11.07;;;11.50;36.70;;;;;;5020283;28;20049;-43
2022/03/10 10:19:56;;;;;;;19.88;10.70;;;11.60;36.50;;;;;;5022017;28;20497;-43
2022/03/10 10:22:24;;;;;;;20.88;11.10;;;11.70;36.30;;;;;;5022682;28;20060;-47
2022/03/10 10:24:55;;;;;;;18.17;10.55;;;11.70;36.40;;;;;;5020014;28;20045;-42
2022/03/10 10:27:24;;;;;;;18.55;11.05;;;11.80;36.30;;;;;;5022828;28;20331;-42
2022/03/10 10:29:53;;;;;;;19.95;11.00;;;11.90;36.40;;;;;;5021505;28;20060;-43
2022/03/10 10:32:34;;;;;;;19.35;11.00;;;11.90;36.40;;;;;;5021810;28;20049;-45
2022/03/10 10:35:04;;;;;;;20.80;10.32;;;12.00;36.10;;;;;;5016028;28;21282;-43
2022/03/10 10:37:31;;;;;;;17.85;10.65;;;12.00;35.80;;;;;;5022048;28;20058;-43
2022/03/10 10:40:00;;;;;;;21.48;11.50;;;12.10;35.90;;;;;;5023121;28;20064;-43
2022/03/10 10:42:30;;;;;;;21.58;10.68;;;12.20;35.80;;;;;;5022573;28;20410;-44
2022/03/10 10:45:00;;;;;;;21.17;11.52;;;12.30;35.40;;;;;;5022224;28;20072;-43
2022/03/10 10:47:28;;;;;;;18.83;10.45;;;12.40;35.20;;;;;;5022534;28;20519;-43
2022/03/10 10:50:01;;;;;;;17.55;10.50;;;12.50;35.10;;;;;;5020098;28;20053;-46
2022/03/10 10:52:38;;;;;;;19.38;11.10;;;12.60;35.00;;;;;;5020684;28;20056;-47
2022/03/10 10:55:10;;;;;;;16.45;10.40;;;12.70;35.00;;;;;;5022196;28;20053;-43
2022/03/10 10:57:39;;;;;;;18.25;10.57;;;12.80;35.00;;;;;;5018946;28;20057;-43
2022/03/10 11:00:10;;;;;;;21.08;11.48;;;12.80;34.90;;;;;;5017505;28;20408;-43
2022/03/10 11:02:42;;;;;;;16.52;9.90;;;12.90;34.70;;;;;;5021178;28;20057;-43
2022/03/10 11:05:11;;;;;;;16.17;10.05;;;13.00;34.50;;;;;;5018639;28;20049;-43
2022/03/10 11:07:40;;;;;;;19.58;10.70;;;13.00;34.50;;;;;;5021854;28;20045;-43
2022/03/10 11:10:11;;;;;;;20.45;10.98;;;13.10;34.20;;;;;;5019405;28;20543;-43
2022/03/10 11:12:41;;;;;;;18.20;10.48;;;13.20;34.10;;;;;;5016478;28;20050;-43
2022/03/10 11:15:10;;;;;;;25.80;10.95;;;13.30;34.20;;;;;;5016217;28;20056;-43
2022/03/10 11:17:38;;;;;;;17.95;10.68;;;13.30;34.00;;;;;;5024484;28;20065;-45
2022/03/10 11:20:10;;;;;;;20.77;10.65;;;13.40;33.70;;;;;;5020729;28;20052;-43
2022/03/10 11:23:15;;;;;;;16.85;10.75;;;13.50;33.50;;;;;;5023326;28;20657;-43
2022/03/10 11:25:54;;;;;;;19.08;10.52;;;13.50;33.60;;;;;;5019936;28;20049;-43
2022/03/10 11:28:24;;;;;;;18.95;10.30;;;13.60;33.60;;;;;;5022111;28;20076;-43
2022/03/10 11:30:55;;;;;;;17.15;9.50;;;13.60;33.80;;;;;;5019670;28;20053;-43
2022/03/10 11:33:30;;;;;;;17.40;9.98;;;13.70;33.70;;;;;;5022566;28;20041;-44
2022/03/10 11:35:58;;;;;;;20.13;10.93;;;13.80;33.70;;;;;;5018049;28;20057;-43
2022/03/10 11:38:50;;;;;;;16.23;10.25;;;13.80;33.90;;;;;;5018082;28;20497;-43
2022/03/10 11:41:20;;;;;;;16.75;9.68;;;13.80;33.90;;;;;;5019466;28;20052;-43
2022/03/10 11:43:59;;;;;;;14.90;9.23;;;13.90;33.50;;;;;;5012194;28;20060;-44
2022/03/10 11:46:29;;;;;;;16.20;9.52;;;13.90;33.60;;;;;;5015153;28;20505;-43
2022/03/10 11:49:07;;;;;;;13.20;8.60;;;13.90;33.30;;;;;;5022730;28;20079;-43
2022/03/10 11:51:44;;;;;;;13.27;8.60;;;13.90;33.40;;;;;;5022421;28;20049;-44
2022/03/10 11:54:13;;;;;;;14.45;9.07;;;14.00;33.00;;;;;;5004253;28;20052;-45
2022/03/10 11:57:09;;;;;;;16.40;8.45;;;14.00;33.20;;;;;;5022649;28;20061;-43
2022/03/10 11:59:47;;;;;;;16.33;9.38;;;14.00;33.10;;;;;;5022884;28;20053;-43
2022/03/10 12:02:39;;;;;;;13.75;8.32;;;14.10;33.30;;;;;;5022566;28;20497;-43
2022/03/10 12:05:08;;;;;;;14.95;8.93;;;14.10;33.10;;;;;;5020737;28;20053;-43
2022/03/10 12:07:41;;;;;;;13.73;9.25;;;14.20;32.80;;;;;;5022000;28;20398;-43
2022/03/10 12:10:10;;;;;;;15.02;8.63;;;14.20;32.60;;;;;;5021095;28;20070;-43
2022/03/10 12:12:42;;;;;;;14.48;8.43;;;14.30;33.10;;;;;;5023324;28;20061;-43
2022/03/10 12:15:49;;;;;;;14.35;8.70;;;14.30;33.70;;;;;;5020828;28;20049;-48
2022/03/10 12:18:30;;;;;;;18.10;9.05;;;14.40;32.80;;;;;;5019105;28;20627;-43
2022/03/10 12:20:58;;;;;;;15.93;9.05;;;14.30;32.50;;;;;;5013758;28;20072;-43
2022/03/10 12:23:31;;;;;;;12.93;8.15;;;14.40;32.90;;;;;;5013151;28;20038;-43
2022/03/10 12:26:00;;;;;;;13.93;8.63;;;14.40;33.00;;;;;;5021295;28;20057;-43
2022/03/10 12:28:33;;;;;;;14.32;8.23;;;14.40;32.70;;;;;;5021615;28;20061;-43
2022/03/10 12:31:23;;;;;;;13.82;8.60;;;14.40;32.90;;;;;;5022715;28;20053;-42
2022/03/10 12:33:53;;;;;;;14.32;8.27;;;14.50;32.90;;;;;;5012857;28;20049;-42
2022/03/10 12:36:29;;;;;;;11.82;7.53;;;14.50;32.90;;;;;;5021231;28;20053;-42
2022/03/10 12:38:58;;;;;;;15.85;8.80;;;14.50;32.70;;;;;;5021735;28;20057;-43
2022/03/10 12:41:30;;;;;;;12.18;7.63;;;14.60;32.60;;;;;;5023373;28;20053;-43
2022/03/10 12:44:01;;;;;;;13.90;7.90;;;14.60;32.40;;;;;;5019864;28;20060;-43
2022/03/10 12:46:30;;;;;;;13.18;8.15;;;14.60;32.30;;;;;;5020266;28;20054;-43
2022/03/10 12:49:03;;;;;;;13.70;8.25;;;14.70;32.30;;;;;;5019686;28;20061;-42
2022/03/10 12:51:33;;;;;;;16.17;8.70;;;14.70;32.10;;;;;;5021150;28;20512;-43